Time;durP1;ratioP1;P1;durP2;ratioP2;P2;SDS_P1;SDS_P2;PMS_P1;PMS_P2;Temp;Humidity;BMP_temperature;BMP_pressure;BME280_temperature;BME280_humidity;BME280_pressure;Samples;Min_cycle;Max_cycle;Signal;HPM_P1;HPM_P2
2023/09/25 00:01:04;;;;;;;2.22;2.03;;;;;;;;;;4750021;30;20152;-84
2023/09/25 00:03:30;;;;;;;3.65;2.28;;;;;;;;;;4749762;30;20425;-84
2023/09/25 00:05:56;;;;;;;4.35;2.88;;;;;;;;;;4706060;30;20056;-84
2023/09/25 00:08:22;;;;;;;5.20;2.10;;;;;;;;;;4706505;30;20052;-84
2023/09/25 00:10:48;;;;;;;4.05;2.45;;;;;;;;;;4750053;30;20143;-85
2023/09/25 00:13:14;;;;;;;3.45;2.45;;;;;;;;;;4706335;30;20060;-84
2023/09/25 00:15:44;;;;;;;4.57;2.40;;;;;;;;;;4720741;30;20044;-84
2023/09/25 00:18:12;;;;;;;3.58;2.15;;;;;;;;;;4750139;30;20056;-85
2023/09/25 00:20:38;;;;;;;3.58;2.20;;;;;;;;;;4735328;30;20055;-84
2023/09/25 00:23:04;;;;;;;2.97;1.92;;;;;;;;;;4734960;30;20060;-84
2023/09/25 00:25:31;;;;;;;3.47;2.83;;;;;;;;;;4734759;30;20056;-85
2023/09/25 00:27:57;;;;;;;3.45;2.58;;;;;;;;;;4706381;30;20048;-85
2023/09/25 00:30:23;;;;;;;5.50;2.95;;;;;;;;;;4734921;30;20056;-84
2023/09/25 00:32:52;;;;;;;4.35;2.28;;;;;;;;;;4735153;30;20388;-85
2023/09/25 00:35:20;;;;;;;4.97;2.22;;;;;;;;;;4736792;30;20059;-86
2023/09/25 00:37:47;;;;;;;3.50;2.40;;;;;;;;;;4752877;30;20063;-85
2023/09/25 00:40:13;;;;;;;3.22;2.45;;;;;;;;;;4738164;30;20063;-86
2023/09/25 00:42:45;;;;;;;6.13;2.40;;;13.70;1.00;;;;;;4738636;30;20123;-85
2023/09/25 00:45:11;;;;;;;3.30;2.42;;;;;;;;;;4709236;30;20060;-87
2023/09/25 00:47:42;;;;;;;4.75;2.15;;;13.60;1.00;;;;;;4738204;30;20060;-85
2023/09/25 00:50:09;;;;;;;2.63;2.17;;;;;;;;;;4738301;30;20091;-85
2023/09/25 00:52:37;;;;;;;2.58;1.92;;;13.60;1.00;;;;;;4738111;30;20052;-84
2023/09/25 00:55:04;;;;;;;4.75;2.28;;;;;;;;;;4752448;30;20141;-86
2023/09/25 00:57:30;;;;;;;4.97;3.15;;;;;;;;;;4709432;30;20121;-84
2023/09/25 00:59:57;;;;;;;3.88;2.38;;;;;;;;;;4752349;30;20053;-85
2023/09/25 01:02:23;;;;;;;3.33;2.38;;;;;;;;;;4734754;30;20511;-84
2023/09/25 01:04:49;;;;;;;3.88;2.08;;;;;;;;;;4736159;30;20052;-84
2023/09/25 01:07:17;;;;;;;2.88;2.47;;;;;;;;;;4735060;30;20053;-85
2023/09/25 01:09:43;;;;;;;3.55;2.55;;;;;;;;;;4735986;30;20057;-85
2023/09/25 01:12:09;;;;;;;5.50;2.83;;;;;;;;;;4720007;30;20096;-85
2023/09/25 01:14:35;;;;;;;2.88;2.60;;;;;;;;;;4722195;30;20053;-89
2023/09/25 01:17:01;;;;;;;2.90;2.30;;;;;;;;;;4721637;30;20044;-87
2023/09/25 01:19:27;;;;;;;5.65;3.25;;;;;;;;;;4736024;30;20534;-89
2023/09/25 01:21:54;;;;;;;3.05;2.72;;;;;;;;;;4735651;30;20448;-87
2023/09/25 01:24:20;;;;;;;5.65;3.10;;;;;;;;;;4705856;30;20057;-87
2023/09/25 01:26:46;;;;;;;4.75;2.90;;;;;;;;;;4706549;30;20525;-86
2023/09/25 01:29:17;;;;;;;3.00;2.47;;;;;;;;;;4720655;30;20143;-87
2023/09/25 01:31:43;;;;;;;2.63;2.28;;;;;;;;;;4720264;30;20531;-87
2023/09/25 01:34:09;;;;;;;6.35;2.88;;;;;;;;;;4705866;30;20045;-86
2023/09/25 01:36:35;;;;;;;3.58;2.70;;;;;;;;;;4706032;30;20059;-88
2023/09/25 01:39:02;;;;;;;3.53;2.70;;;;;;;;;;4734631;30;20048;-85
2023/09/25 01:41:28;;;;;;;4.97;2.80;;;;;;;;;;4735735;30;20053;-84
2023/09/25 01:43:54;;;;;;;4.07;2.80;;;;;;;;;;4735346;30;20127;-86
2023/09/25 01:46:21;;;;;;;3.58;2.67;;;;;;;;;;4704835;30;20060;-88
2023/09/25 01:48:47;;;;;;;2.60;2.30;;;;;;;;;;4736138;30;20118;-88
2023/09/25 01:51:13;;;;;;;6.63;2.75;;;;;;;;;;4735019;30;20056;-85
2023/09/25 01:53:39;;;;;;;6.57;2.90;;;;;;;;;;4721071;30;20111;-88
2023/09/25 01:56:12;;;;;;;4.38;2.90;;;;;;;;;;4736134;30;20048;-87
2023/09/25 01:58:40;;;;;;;4.00;3.00;;;;;;;;;;4735078;30;20053;-87
2023/09/25 02:01:06;;;;;;;3.13;2.92;;;;;;;;;;4735462;30;20052;-85
2023/09/25 02:03:32;;;;;;;4.40;2.67;;;;;;;;;;4748750;30;20506;-87
2023/09/25 02:05:58;;;;;;;5.75;2.88;;;;;;;;;;4755008;30;20060;-88
2023/09/25 02:08:24;;;;;;;3.38;2.80;;;;;;;;;;4737872;30;20048;-88
2023/09/25 02:10:50;;;;;;;3.47;3.17;;;;;;;;;;4737904;30;20139;-87
2023/09/25 02:13:16;;;;;;;6.55;3.15;;;;;;;;;;4752759;30;20055;-87
2023/09/25 02:15:42;;;;;;;6.43;3.80;;;;;;;;;;4751354;30;20048;-88
2023/09/25 02:18:08;;;;;;;4.13;2.80;;;;;;;;;;4736777;30;20052;-87
2023/09/25 02:20:35;;;;;;;3.75;2.90;;;;;;;;;;4752039;30;20512;-88
2023/09/25 02:23:01;;;;;;;6.82;3.03;;;;;;;;;;4753158;30;20055;-88
2023/09/25 02:25:27;;;;;;;5.40;2.63;;;;;;;;;;4736801;30;20116;-88
2023/09/25 02:27:54;;;;;;;3.25;2.78;;;;;;;;;;4752856;30;20208;-87
2023/09/25 02:30:20;;;;;;;3.40;2.60;;;;;;;;;;4753109;30;20067;-88
2023/09/25 02:32:47;;;;;;;3.97;2.70;;;;;;;;;;4755434;30;20056;-89
2023/09/25 02:35:14;;;;;;;6.22;3.15;;;;;;;;;;4740110;30;20059;-88
2023/09/25 02:37:40;;;;;;;5.75;2.75;;;;;;;;;;4753673;30;20414;-89
2023/09/25 02:40:13;;;;;;;8.48;3.05;;;;;;;;;;4753668;30;20134;-89
2023/09/25 02:42:39;;;;;;;3.55;3.08;;;;;;;;;;4753204;30;20056;-89
2023/09/25 02:45:05;;;;;;;6.32;3.28;;;;;;;;;;4737666;30;20109;-88
2023/09/25 02:47:31;;;;;;;3.13;2.83;;;;;;;;;;4737738;30;20052;-89
2023/09/25 02:49:57;;;;;;;4.57;3.25;;;;;;;;;;4737295;30;20087;-87
2023/09/25 02:52:23;;;;;;;5.25;2.65;;;;;;;;;;4752745;30;20055;-88
2023/09/25 02:54:50;;;;;;;5.43;2.70;;;;;;;;;;4757487;30;20134;-88
2023/09/25 02:57:16;;;;;;;3.05;2.60;;;;;;;;;;4757248;30;20475;-88
2023/09/25 02:59:42;;;;;;;3.45;2.97;;;;;;;;;;4757870;30;20099;-88
2023/09/25 03:02:08;;;;;;;3.03;2.75;;;;;;;;;;4757328;30;20048;-89
2023/09/25 03:04:35;;;;;;;3.58;2.75;;;;;;;;;;4757511;30;20060;-89
2023/09/25 03:07:01;;;;;;;3.63;3.05;;;;;;;;;;4755947;30;20058;-88
2023/09/25 03:09:27;;;;;;;2.78;2.58;;;;;;;;;;4710787;30;20056;-88
2023/09/25 03:11:53;;;;;;;3.60;2.83;;;;;;;;;;4750922;30;20048;-87
2023/09/25 03:14:19;;;;;;;4.00;2.83;;;;;;;;;;4736075;30;20118;-87
2023/09/25 03:16:46;;;;;;;3.80;2.80;;;;;;;;;;4735920;30;20086;-86
2023/09/25 03:19:12;;;;;;;4.45;2.75;;;;;;;;;;4735738;30;20059;-87
2023/09/25 03:21:41;;;;;;;3.13;2.58;;;13.20;1.00;;;;;;4706720;30;20410;-84
2023/09/25 03:24:07;;;;;;;5.25;2.50;;;;;;;;;;4736268;30;20397;-86
2023/09/25 03:26:34;;;;;;;4.28;2.92;;;;;;;;;;4720944;30;20095;-84
2023/09/25 03:29:00;;;;;;;2.90;2.70;;;;;;;;;;4706858;30;20106;-85
2023/09/25 03:31:26;;;;;;;7.97;3.22;;;;;;;;;;4735800;30;20044;-85
2023/09/25 03:33:52;;;;;;;5.97;3.00;;;;;;;;;;4750304;30;20093;-85
2023/09/25 03:36:18;;;;;;;4.63;2.83;;;;;;;;;;4750321;30;20510;-85
2023/09/25 03:38:44;;;;;;;4.53;2.70;;;;;;;;;;4720932;30;20059;-85
2023/09/25 03:41:10;;;;;;;4.93;2.67;;;;;;;;;;4706439;30;20063;-84
2023/09/25 03:43:36;;;;;;;4.78;2.80;;;;;;;;;;4749926;30;20060;-84
2023/09/25 03:46:03;;;;;;;4.40;2.67;;;;;;;;;;4735327;30;20056;-84
2023/09/25 03:48:29;;;;;;;4.72;3.03;;;;;;;;;;4749891;30;20159;-84
2023/09/25 03:50:55;;;;;;;4.13;2.60;;;;;;;;;;4735209;30;20537;-84
2023/09/25 03:53:21;;;;;;;5.22;3.40;;;;;;;;;;4706367;30;20060;-83
2023/09/25 03:55:47;;;;;;;4.00;3.15;;;;;;;;;;4751135;30;20044;-83
2023/09/25 03:58:13;;;;;;;4.72;3.08;;;;;;;;;;4751329;30;20473;-85
2023/09/25 04:00:40;;;;;;;2.88;2.55;;;;;;;;;;4750567;30;20102;-87
2023/09/25 04:03:06;;;;;;;4.10;3.15;;;;;;;;;;4751523;30;20096;-85
2023/09/25 04:05:33;;;;;;;4.20;2.80;;;;;;;;;;4751702;30;20060;-85
2023/09/25 04:08:00;;;;;;;6.70;3.20;;;;;;;;;;4750290;30;20063;-85
2023/09/25 04:10:27;;;;;;;3.33;2.85;;;;;;;;;;4752510;30;20063;-85
2023/09/25 04:12:53;;;;;;;3.17;2.83;;;;;;;;;;4754998;30;20056;-87
2023/09/25 04:15:22;;;;;;;5.60;3.40;;;;;;;;;;4739562;30;20067;-85
2023/09/25 04:17:57;;;;;;;3.63;2.80;;;;;;;;;;4754843;30;20494;-86
2023/09/25 04:20:26;;;;;;;2.70;2.28;;;;;;;;;;4739455;30;20053;-88
2023/09/25 04:22:53;;;;;;;3.72;3.20;;;;;;;;;;4755070;30;20080;-87
2023/09/25 04:25:19;;;;;;;3.50;3.13;;;;;;;;;;4754546;30;20068;-87
2023/09/25 04:27:47;;;;;;;4.53;3.33;;;12.80;1.00;;;;;;4754731;30;20402;-87
2023/09/25 04:30:14;;;;;;;5.03;2.90;;;;;;;;;;4738881;30;20056;-87
2023/09/25 04:32:42;;;;;;;3.38;2.47;;;12.60;1.00;;;;;;4738431;30;20086;-85
2023/09/25 04:35:08;;;;;;;4.10;3.22;;;;;;;;;;4753030;30;20153;-87
2023/09/25 04:37:36;;;;;;;3.67;2.88;;;;;;;;;;4738130;30;20056;-83
2023/09/25 04:40:07;;;;;;;3.80;3.00;;;;;;;;;;4752899;30;20067;-84
2023/09/25 04:42:33;;;;;;;6.25;3.33;;;;;;;;;;4754033;30;20070;-84
2023/09/25 04:44:59;;;;;;;3.45;2.97;;;;;;;;;;4752739;30;20048;-85
2023/09/25 04:47:25;;;;;;;3.40;3.10;;;;;;;;;;4752854;30;20139;-84
2023/09/25 04:49:51;;;;;;;5.97;3.40;;;;;;;;;;4752868;30;20514;-84
2023/09/25 04:52:17;;;;;;;4.95;3.03;;;;;;;;;;4754128;30;20111;-84
2023/09/25 04:54:43;;;;;;;4.53;3.03;;;;;;;;;;4752991;30;20055;-85
2023/09/25 04:57:09;;;;;;;6.40;3.35;;;;;;;;;;4752385;30;20058;-84
2023/09/25 04:59:35;;;;;;;4.00;2.97;;;;;;;;;;4752379;30;20088;-83
2023/09/25 05:02:02;;;;;;;7.18;2.80;;;;;;;;;;4737735;30;20078;-84
2023/09/25 05:04:28;;;;;;;3.67;3.15;;;;;;;;;;4737443;30;20051;-83
2023/09/25 05:06:54;;;;;;;6.95;2.75;;;;;;;;;;4708605;30;20060;-84
2023/09/25 05:09:22;;;;;;;3.45;2.88;;;;;;;;;;4737497;30;20052;-84
2023/09/25 05:11:48;;;;;;;4.40;3.35;;;;;;;;;;4737712;30;20407;-84
2023/09/25 05:14:14;;;;;;;4.38;3.13;;;;;;;;;;4752193;30;20096;-83
2023/09/25 05:16:41;;;;;;;5.60;3.20;;;;;;;;;;4753429;30;20048;-84
2023/09/25 05:19:07;;;;;;;7.40;2.97;;;;;;;;;;4737691;30;20061;-84
2023/09/25 05:21:33;;;;;;;4.75;3.47;;;;;;;;;;4751949;30;20052;-84
2023/09/25 05:23:59;;;;;;;7.28;3.00;;;;;;;;;;4751956;30;20522;-84
2023/09/25 05:26:25;;;;;;;4.35;3.42;;;;;;;;;;4753103;30;20055;-83
2023/09/25 05:28:51;;;;;;;6.00;3.58;;;;;;;;;;4752429;30;20044;-83
2023/09/25 05:31:18;;;;;;;6.28;2.90;;;;;;;;;;4753609;30;20052;-84
2023/09/25 05:33:44;;;;;;;3.58;3.25;;;;;;;;;;4753535;30;20048;-84
2023/09/25 05:36:10;;;;;;;7.13;4.35;;;;;;;;;;4753084;30;20056;-84
2023/09/25 05:38:36;;;;;;;9.32;3.60;;;;;;;;;;4752209;30;20106;-84
2023/09/25 05:41:02;;;;;;;3.95;3.03;;;;;;;;;;4753011;30;20044;-84
2023/09/25 05:43:28;;;;;;;5.15;3.42;;;;;;;;;;4737210;30;20071;-83
2023/09/25 05:45:54;;;;;;;3.40;3.05;;;;;;;;;;4753032;30;20052;-84
2023/09/25 05:48:20;;;;;;;5.80;3.67;;;;;;;;;;4751470;30;20541;-84
2023/09/25 05:50:47;;;;;;;5.13;3.83;;;;;;;;;;4752862;30;20117;-84
2023/09/25 05:53:14;;;;;;;4.00;3.03;;;;;;;;;;4736727;30;20049;-85
2023/09/25 05:55:40;;;;;;;3.80;3.17;;;;;;;;;;4752624;30;20048;-84
2023/09/25 05:58:07;;;;;;;4.68;3.10;;;;;;;;;;4751648;30;20052;-85
2023/09/25 06:00:34;;;;;;;4.95;3.33;;;;;;;;;;4751467;30;20117;-86
2023/09/25 06:03:00;;;;;;;5.68;2.92;;;;;;;;;;4752669;30;20090;-86
2023/09/25 06:05:27;;;;;;;5.20;3.15;;;;;;;;;;4751376;30;20514;-85
2023/09/25 06:07:53;;;;;;;5.65;3.00;;;;;;;;;;4751238;30;20044;-85
2023/09/25 06:10:22;;;;;;;5.60;3.17;;;;;;;;;;4736811;30;20070;-85
2023/09/25 06:12:50;;;;;;;3.67;2.90;;;;;;;;;;4750975;30;20509;-85
2023/09/25 06:15:16;;;;;;;4.03;3.03;;;;;;;;;;4752560;30;20060;-85
2023/09/25 06:17:42;;;;;;;4.70;3.20;;;;;;;;;;4736524;30;20044;-84
2023/09/25 06:20:15;;;;;;;5.93;3.20;;;;;;;;;;4736289;30;20558;-85
2023/09/25 06:22:46;;;;;;;6.57;2.97;;;;;;;;;;4736390;30;20044;-85
2023/09/25 06:25:16;;;;;;;3.88;2.92;;;;;;;;;;4707242;30;20048;-85
2023/09/25 06:27:44;;;;;;;2.90;2.42;;;;;;;;;;4751930;30;20549;-84
2023/09/25 06:30:11;;;;;;;4.85;3.15;;;;;;;;;;4750840;30;20063;-85
2023/09/25 06:32:37;;;;;;;6.68;3.05;;;;;;;;;;4751675;30;20050;-85
2023/09/25 06:35:04;;;;;;;2.85;2.65;;;;;;;;;;4752180;30;20044;-85
2023/09/25 06:37:30;;;;;;;4.07;3.13;;;;;;;;;;4707030;30;20054;-84
2023/09/25 06:39:56;;;;;;;8.55;3.55;;;;;;;;;;4751987;30;20167;-85
2023/09/25 06:42:23;;;;;;;4.65;2.75;;;;;;;;;;4752064;30;20402;-85
2023/09/25 06:44:49;;;;;;;3.28;2.75;;;;;;;;;;4735943;30;20048;-85
2023/09/25 06:47:15;;;;;;;3.88;2.80;;;;;;;;;;4736096;30;20487;-86
2023/09/25 06:49:41;;;;;;;3.47;2.35;;;;;;;;;;4750806;30;20075;-84
2023/09/25 06:52:07;;;;;;;5.88;2.55;;;;;;;;;;4721259;30;20044;-85
2023/09/25 06:54:33;;;;;;;3.38;3.00;;;;;;;;;;4736269;30;20450;-85
2023/09/25 06:57:00;;;;;;;5.88;2.88;;;;;;;;;;4721239;30;20044;-86
2023/09/25 06:59:26;;;;;;;3.22;2.13;;;;;;;;;;4721352;30;20399;-85
2023/09/25 07:01:52;;;;;;;2.50;2.25;;;;;;;;;;4707119;30;20087;-86
2023/09/25 07:04:19;;;;;;;2.53;2.08;;;;;;;;;;4735298;30;20066;-86
2023/09/25 07:06:45;;;;;;;4.13;2.40;;;;;;;;;;4721180;30;20059;-85
2023/09/25 07:09:14;;;;;;;5.05;2.63;;;;;;;;;;4706791;30;20130;-86
2023/09/25 07:11:40;;;;;;;6.43;2.88;;;;;;;;;;4735560;30;20051;-85
2023/09/25 07:14:07;;;;;;;3.72;2.65;;;;;;;;;;4735868;30;20052;-85
2023/09/25 07:16:35;;;;;;;3.03;2.72;;;;;;;;;;4721412;30;20451;-86
2023/09/25 07:19:01;;;;;;;5.05;2.55;;;;;;;;;;4706758;30;20059;-85
2023/09/25 07:21:27;;;;;;;3.30;2.53;;;;;;;;;;4750670;30;20048;-86
2023/09/25 07:23:53;;;;;;;6.70;3.17;;;;;;;;;;4750131;30;20052;-86
2023/09/25 07:26:19;;;;;;;3.92;2.83;;;;;;;;;;4750168;30;20182;-86
2023/09/25 07:28:48;;;;;;;5.03;2.95;;;;;;;;;;4735484;30;20056;-85
2023/09/25 07:31:23;;;;;;;3.58;2.38;;;;;;;;;;4735461;30;20109;-85
2023/09/25 07:33:50;;;;;;;3.78;2.50;;;;;;;;;;4735624;30;20683;-85
2023/09/25 07:36:20;;;;;;;3.53;2.67;;;;;;;;;;4735740;30;20107;-85
2023/09/25 07:38:46;;;;;;;3.95;2.10;;;;;;;;;;4735518;30;20084;-84
2023/09/25 07:41:12;;;;;;;3.50;2.72;;;;;;;;;;4749972;30;20387;-85
2023/09/25 07:43:39;;;;;;;3.88;2.47;;;;;;;;;;4736560;30;20143;-84
2023/09/25 07:46:05;;;;;;;2.95;2.47;;;;;;;;;;4753570;30;20059;-85
2023/09/25 07:48:31;;;;;;;2.53;2.33;;;;;;;;;;4710024;30;20067;-86
2023/09/25 07:50:58;;;;;;;6.50;3.03;;;;;;;;;;4753480;30;20062;-84
2023/09/25 07:53:25;;;;;;;3.40;2.20;;;13.70;1.00;;;;;;4753691;30;20147;-84
2023/09/25 07:55:51;;;;;;;4.43;1.95;;;13.90;1.00;;;;;;4709465;30;20131;-85
2023/09/25 07:58:19;;;;;;;4.47;2.28;;;;;;;;;;4710320;30;20407;-86
2023/09/25 08:00:46;;;;;;;2.78;2.28;;;;;;;;;;4738861;30;20085;-83
2023/09/25 08:03:17;;;;;;;4.32;1.85;;;;;;;;;;4753048;30;20060;-85
2023/09/25 08:05:43;;;;;;;5.32;2.65;;;;;;;;;;4753340;30;20056;-85
2023/09/25 08:08:13;;;;;;;4.57;2.30;;;;;;;;;;4738553;30;20058;-86
2023/09/25 08:10:41;;;;;;;2.60;1.90;;;;;;;;;;4753458;30;20398;-86
2023/09/25 08:13:09;;;;;;;3.33;2.00;;;;;;;;;;4724024;30;20518;-84
2023/09/25 08:15:35;;;;;;;2.65;2.35;;;;;;;;;;4752979;30;20060;-85
2023/09/25 08:18:01;;;;;;;2.92;2.45;;;;;;;;;;4753342;30;20143;-84
2023/09/25 08:20:28;;;;;;;4.40;2.28;;;;;;;;;;4709982;30;20083;-87
2023/09/25 08:22:54;;;;;;;3.42;2.88;;;;;;;;;;4738796;30;20055;-86
2023/09/25 08:25:21;;;;;;;4.00;2.42;;;14.50;1.00;;;;;;4753102;30;20128;-85
2023/09/25 08:27:48;;;;;;;2.95;2.03;;;;;;;;;;4723831;30;20058;-87
2023/09/25 08:30:18;;;;;;;3.38;2.00;;;;;;;;;;4738624;30;20084;-87
2023/09/25 08:32:45;;;;;;;4.88;2.75;;;;;;;;;;4738439;30;20083;-87
2023/09/25 08:35:11;;;;;;;2.55;2.00;;;;;;;;;;4753504;30;20414;-87
2023/09/25 08:37:38;;;;;;;2.58;2.10;;;;;;;;;;4753628;30;20045;-87
2023/09/25 08:40:05;;;;;;;3.78;2.83;;;;;;;;;;4752941;30;20490;-87
2023/09/25 08:42:31;;;;;;;5.25;2.08;;;;;;;;;;4738284;30;20080;-87
2023/09/25 08:45:01;;;;;;;3.25;2.50;;;14.80;1.00;;;;;;4723724;30;20052;-87
2023/09/25 08:47:28;;;;;;;6.53;2.40;;;;;;;;;;4738177;30;20139;-87
2023/09/25 08:49:54;;;;;;;3.08;2.17;;;;;;;;;;4752883;30;20118;-87
2023/09/25 08:52:21;;;;;;;3.75;2.83;;;;;;;;;;4738375;30;20445;-87
2023/09/25 08:54:48;;;;;;;3.47;2.42;;;;;;;;;;4737807;30;20143;-87
2023/09/25 08:57:15;;;;;;;4.53;2.40;;;;;;;;;;4738286;30;20465;-87
2023/09/25 08:59:44;;;;;;;2.50;2.30;;;;;;;;;;4723593;30;20057;-84
2023/09/25 09:02:12;;;;;;;4.75;2.17;;;;;;;;;;4738326;30;20056;-86
2023/09/25 09:04:38;;;;;;;2.75;1.90;;;;;;;;;;4738045;30;20414;-85
2023/09/25 09:07:11;;;;;;;2.50;1.90;;;15.60;1.00;;;;;;4752575;30;20063;-85
2023/09/25 09:09:38;;;;;;;5.37;2.30;;;;;;;;;;4708882;30;20059;-84
2023/09/25 09:12:05;;;;;;;2.67;2.38;;;;;;;;;;4752841;30;20298;-86
2023/09/25 09:14:49;;;;;;;3.83;2.13;;;;;;;;;;4752602;30;20502;-87
2023/09/25 09:17:14;;;;;;;;;;;15.90;1.00;;;;;;4752962;30;20117;-87
2023/09/25 09:19:46;;;;;;;2.28;2.08;;;;;;;;;;4708651;30;19977;-86
2023/09/25 09:22:13;;;;;;;3.28;2.03;;;;;;;;;;4737838;30;20093;-84
2023/09/25 09:24:40;;;;;;;4.45;2.40;;;;;;;;;;4708817;30;20048;-85
2023/09/25 09:27:07;;;;;;;3.17;2.03;;;;;;;;;;4751699;30;20055;-83
2023/09/25 09:29:40;;;;;;;3.38;2.10;;;;;;;;;;4732651;30;20495;-87
2023/09/25 09:32:06;;;;;;;2.45;2.10;;;;;;;;;;4707215;30;20051;-86
2023/09/25 09:34:36;;;;;;;3.17;1.90;;;;;;;;;;4695030;30;20206;-85
2023/09/25 09:37:03;;;;;;;1.85;1.58;;;;;;;;;;4694860;30;20049;-85
2023/09/25 09:39:35;;;;;;;4.38;1.60;;;;;;;;;;4695077;30;20055;-85
2023/09/25 09:42:05;;;;;;;3.17;1.83;;;;;;;;;;4695564;30;20052;-84
2023/09/25 09:44:35;;;;;;;4.38;2.17;;;;;;;;;;4695172;30;20523;-85
2023/09/25 09:47:04;;;;;;;2.83;2.20;;;16.40;1.00;;;;;;4694984;30;20061;-85
2023/09/25 09:49:32;;;;;;;5.03;2.10;;;;;;;;;;4709505;30;20064;-85
2023/09/25 09:52:00;;;;;;;6.53;2.30;;;;;;;;;;4694619;30;20527;-85
2023/09/25 09:54:29;;;;;;;4.05;1.83;;;16.60;1.00;;;;;;4695095;30;20056;-86
2023/09/25 09:56:58;;;;;;;4.90;2.70;;;;;;;;;;4694699;30;20069;-85
2023/09/25 09:59:27;;;;;;;3.00;2.25;;;;;;;;;;4694395;30;20079;-85
2023/09/25 10:01:53;;;;;;;3.35;2.30;;;;;;;;;;4680133;30;20063;-85
2023/09/25 10:04:20;;;;;;;3.40;2.20;;;;;;;;;;4708987;30;20094;-85
2023/09/25 10:06:49;;;;;;;4.63;2.13;;;;;;;;;;4678974;30;20119;-86
2023/09/25 10:09:15;;;;;;;3.10;2.17;;;;;;;;;;4693582;30;20062;-85
2023/09/25 10:11:45;;;;;;;3.60;2.13;;;;;;;;;;4707268;30;20044;-85
2023/09/25 10:14:12;;;;;;;3.63;2.17;;;;;;;;;;4709643;30;20787;-84
2023/09/25 10:16:54;;;;;;;2.63;2.15;;;;;;;;;;4693309;30;20392;-85
2023/09/25 10:19:20;;;;;;;4.68;2.05;;;;;;;;;;4680305;30;20041;-85
2023/09/25 10:22:19;;;;;;;3.33;2.22;;;17.40;1.00;;;;;;4704487;30;20139;-85
2023/09/25 10:24:58;;;;;;;8.57;2.22;;;17.60;1.00;;;;;;4701842;30;20060;-83
2023/09/25 10:27:25;;;;;;;2.88;2.20;;;;;;;;;;4718754;30;20118;-84
2023/09/25 10:30:11;;;;;;;4.22;2.25;;;17.60;1.00;;;;;;4704418;30;20067;-83
2023/09/25 10:32:39;;;;;;;3.72;2.00;;;;;;;;;;4690187;30;20057;-83
2023/09/25 10:35:40;;;;;;;11.70;4.38;;;17.90;1.00;;;;;;4718623;30;20507;-85
2023/09/25 10:38:11;;;;;;;4.88;2.25;;;17.90;1.00;;;;;;4704393;30;20052;-84
2023/09/25 10:40:37;;;;;;;4.40;3.08;;;;;;;;;;4704017;30;20056;-84
2023/09/25 10:43:04;;;;;;;4.00;2.53;;;18.00;1.00;;;;;;4704423;30;20056;-84
2023/09/25 10:45:31;;;;;;;4.20;2.10;;;17.90;1.00;;;;;;4718834;30;20052;-83
2023/09/25 10:47:58;;;;;;;5.20;2.13;;;18.00;1.00;;;;;;4705419;30;20102;-86
2023/09/25 10:50:28;;;;;;;3.50;2.35;;;;;;;;;;4705020;30;20056;-87
2023/09/25 10:52:54;;;;;;;4.50;2.30;;;;;;;;;;4705252;30;20063;-88
2023/09/25 10:55:20;;;;;;;2.70;2.20;;;;;;;;;;4690719;30;20056;-87
2023/09/25 10:57:46;;;;;;;2.47;2.28;;;;;;;;;;4720245;30;20055;-87
2023/09/25 11:00:15;;;;;;;5.80;2.00;;;;;;;;;;4706231;30;20062;-88
2023/09/25 11:02:44;;;;;;;3.80;2.17;;;;;;;;;;4720187;30;20143;-87
2023/09/25 11:05:11;;;;;;;7.60;2.42;;;;;;;;;;4705463;30;20515;-87
2023/09/25 11:07:37;;;;;;;6.75;2.15;;;18.70;1.00;;;;;;4705677;30;20651;-86
2023/09/25 11:10:04;;;;;;;4.68;2.53;;;18.50;1.00;;;;;;4705500;30;20067;-87
2023/09/25 11:12:30;;;;;;;3.45;2.35;;;18.80;1.00;;;;;;4703860;30;20045;-86
2023/09/25 11:14:57;;;;;;;3.70;2.28;;;;;;;;;;4704175;30;20049;-86
2023/09/25 11:17:24;;;;;;;2.60;1.90;;;18.80;1.00;;;;;;4704568;30;20499;-86
2023/09/25 11:19:52;;;;;;;2.85;2.10;;;18.90;1.00;;;;;;4703424;30;20506;-84
2023/09/25 11:22:24;;;;;;;4.57;2.28;;;19.00;1.00;;;;;;4718263;30;20060;-83
2023/09/25 11:24:54;;;;;;;6.07;2.42;;;19.00;1.00;;;;;;4703586;30;20052;-84
2023/09/25 11:27:20;;;;;;;2.50;2.30;;;;;;;;;;4718402;30;20052;-83
2023/09/25 11:29:50;;;;;;;2.83;1.98;;;;;;;;;;4718237;30;20516;-85
2023/09/25 11:32:17;;;;;;;6.18;2.22;;;;;;;;;;4718124;30;20044;-86
2023/09/25 11:34:47;;;;;;;3.25;2.17;;;;;;;;;;4717857;30;20045;-85
2023/09/25 11:37:20;;;;;;;2.22;1.88;;;19.20;1.00;;;;;;4689949;30;20056;-86
2023/09/25 11:39:46;;;;;;;4.30;2.67;;;;;;;;;;4718155;30;20406;-86
2023/09/25 11:42:12;;;;;;;2.35;1.98;;;;;;;;;;4733796;30;20091;-85
2023/09/25 11:44:38;;;;;;;3.33;2.13;;;;;;;;;;4703358;30;20143;-84
2023/09/25 11:47:07;;;;;;;3.00;2.03;;;19.70;1.00;;;;;;4718588;30;20104;-85
2023/09/25 11:49:33;;;;;;;4.18;1.88;;;;;;;;;;4733915;30;20461;-84
2023/09/25 11:51:59;;;;;;;3.17;2.10;;;;;;;;;;4689132;30;20056;-85
2023/09/25 11:54:25;;;;;;;3.50;2.25;;;;;;;;;;4703933;30;20049;-84
2023/09/25 11:56:52;;;;;;;8.48;2.60;;;;;;;;;;4717711;30;20064;-85
2023/09/25 11:59:18;;;;;;;4.65;2.65;;;;;;;;;;4703591;30;20052;-83
2023/09/25 12:01:45;;;;;;;7.95;3.17;;;;;;;;;;4703555;30;20491;-85
2023/09/25 12:04:14;;;;;;;2.83;2.10;;;;;;;;;;4703086;30;20072;-85
2023/09/25 12:06:42;;;;;;;3.58;2.40;;;;;;;;;;4689241;30;20067;-86
2023/09/25 12:09:11;;;;;;;9.40;2.42;;;;;;;;;;4703729;30;20060;-85
2023/09/25 12:11:40;;;;;;;2.90;1.88;;;19.80;1.00;;;;;;4703487;30;20053;-85
2023/09/25 12:14:06;;;;;;;3.38;2.15;;;;;;;;;;4703004;30;20088;-84
2023/09/25 12:16:33;;;;;;;3.60;2.20;;;;;;;;;;4703249;30;20064;-86
2023/09/25 12:18:59;;;;;;;2.75;2.47;;;;;;;;;;4688994;30;20051;-87
2023/09/25 12:21:25;;;;;;;4.10;2.88;;;;;;;;;;4703850;30;20057;-85
2023/09/25 12:23:52;;;;;;;5.07;2.90;;;;;;;;;;4718095;30;20410;-84
2023/09/25 12:26:18;;;;;;;3.20;1.73;;;;;;;;;;4702942;30;20052;-85
2023/09/25 12:28:44;;;;;;;2.10;1.90;;;;;;;;;;4717872;30;20135;-85
2023/09/25 12:31:11;;;;;;;5.00;2.67;;;;;;;;;;4704974;30;20149;-84
2023/09/25 12:33:37;;;;;;;2.22;2.03;;;;;;;;;;4720807;30;20048;-86
2023/09/25 12:36:06;;;;;;;7.22;2.45;;;;;;;;;;4720955;30;20145;-86
2023/09/25 12:38:32;;;;;;;4.00;1.88;;;;;;;;;;4706777;30;20056;-86
2023/09/25 12:40:58;;;;;;;3.65;2.17;;;;;;;;;;4720931;30;20491;-86
2023/09/25 12:43:27;;;;;;;5.88;2.45;;;19.90;1.00;;;;;;4705951;30;20060;-87
2023/09/25 12:45:53;;;;;;;3.42;2.15;;;;;;;;;;4736606;30;20127;-87
2023/09/25 12:48:20;;;;;;;4.63;2.83;;;;;;;;;;4720432;30;20060;-87
2023/09/25 12:50:47;;;;;;;6.03;2.50;;;;;;;;;;4691717;30;20139;-87
2023/09/25 12:53:13;;;;;;;3.10;2.13;;;;;;;;;;4706605;30;20049;-87
2023/09/25 12:55:39;;;;;;;2.35;2.13;;;;;;;;;;4720228;30;20099;-87
2023/09/25 12:58:06;;;;;;;2.85;2.50;;;;;;;;;;4720403;30;20048;-86
2023/09/25 13:00:32;;;;;;;4.35;1.67;;;;;;;;;;4707990;30;20052;-87
2023/09/25 13:02:58;;;;;;;2.53;2.33;;;;;;;;;;4707427;30;20487;-84
2023/09/25 13:05:24;;;;;;;5.57;2.28;;;;;;;;;;4721726;30;20155;-87
2023/09/25 13:07:50;;;;;;;6.32;2.72;;;;;;;;;;4721648;30;20049;-88
2023/09/25 13:10:16;;;;;;;4.07;1.83;;;;;;;;;;4721480;30;20533;-86
2023/09/25 13:12:42;;;;;;;3.78;2.20;;;21.00;1.00;;;;;;4721510;30;20053;-84
2023/09/25 13:15:08;;;;;;;2.38;2.17;;;;;;;;;;4692359;30;20135;-86
2023/09/25 13:17:35;;;;;;;2.83;2.22;;;21.20;1.00;;;;;;4692254;30;20056;-86
2023/09/25 13:20:07;;;;;;;6.63;2.28;;;;;;;;;;4736386;30;20125;-86
2023/09/25 13:22:36;;;;;;;4.72;2.55;;;21.10;1.00;;;;;;4692951;30;20060;-85
2023/09/25 13:25:02;;;;;;;2.53;2.20;;;;;;;;;;4706732;30;20483;-84
2023/09/25 13:27:28;;;;;;;3.17;2.40;;;;;;;;;;4706713;30;20048;-88
2023/09/25 13:29:55;;;;;;;4.43;1.90;;;;;;;;;;4720885;30;20056;-85
2023/09/25 13:32:21;;;;;;;2.55;2.00;;;;;;;;;;4706543;30;20056;-84
2023/09/25 13:34:47;;;;;;;3.92;2.42;;;21.50;1.00;;;;;;4720592;30;20061;-87
2023/09/25 13:37:13;;;;;;;3.97;2.35;;;;;;;;;;4721058;30;20082;-85
2023/09/25 13:39:39;;;;;;;5.22;2.28;;;;;;;;;;4720869;30;20071;-88
2023/09/25 13:42:06;;;;;;;2.83;2.45;;;;;;;;;;4720268;30;20044;-84
2023/09/25 13:44:34;;;;;;;7.63;2.50;;;21.40;1.00;;;;;;4706044;30;20060;-88
2023/09/25 13:47:00;;;;;;;4.00;1.88;;;;;;;;;;4706587;30;20052;-88
2023/09/25 13:49:26;;;;;;;4.15;2.53;;;;;;;;;;4706823;30;20064;-87
2023/09/25 13:51:52;;;;;;;4.03;2.08;;;;;;;;;;4706284;30;20045;-88
2023/09/25 13:54:18;;;;;;;4.97;2.33;;;;;;;;;;4706078;30;20040;-88
2023/09/25 13:56:45;;;;;;;4.30;2.22;;;;;;;;;;4720594;30;20143;-87
2023/09/25 13:59:14;;;;;;;2.42;2.20;;;;;;;;;;4691840;30;20515;-87
2023/09/25 14:01:41;;;;;;;5.65;2.45;;;;;;;;;;4706735;30;20060;-86
2023/09/25 14:04:07;;;;;;;3.13;2.42;;;;;;;;;;4705714;30;20056;-87
2023/09/25 14:06:33;;;;;;;3.65;2.42;;;;;;;;;;4706275;30;20143;-87
2023/09/25 14:08:59;;;;;;;3.55;2.58;;;22.00;1.00;;;;;;4720810;30;20112;-86
2023/09/25 14:11:25;;;;;;;5.75;2.45;;;;;;;;;;4705997;30;20537;-86
2023/09/25 14:13:51;;;;;;;2.75;2.13;;;;;;;;;;4706395;30;20060;-86
2023/09/25 14:16:18;;;;;;;5.25;2.60;;;;;;;;;;4705941;30;20531;-86
2023/09/25 14:18:43;;;;;;;2.97;2.15;;;21.70;1.00;;;;;;4706449;30;20575;-87
2023/09/25 14:21:10;;;;;;;9.30;2.40;;;;;;;;;;4692796;30;20504;-85
2023/09/25 14:23:36;;;;;;;4.93;2.40;;;;;;;;;;4693052;30;20092;-88
2023/09/25 14:26:02;;;;;;;3.38;2.67;;;;;;;;;;4705900;30;20112;-88
2023/09/25 14:28:28;;;;;;;5.30;2.58;;;;;;;;;;4720720;30;20055;-89